Time;durP1;ratioP1;P1;durP2;ratioP2;P2;SDS_P1;SDS_P2;PMS_P1;PMS_P2;Temp;Humidity;BMP_temperature;BMP_pressure;BME280_temperature;BME280_humidity;BME280_pressure;Samples;Min_cycle;Max_cycle;Signal;HPM_P1;HPM_P2
2022/05/25 00:00:18;;;;;;;4.70;1.40;;;16.70;69.50;;;;;;21093893;28;20287;-76
2022/05/25 00:10:20;;;;;;;1.73;1.20;;;16.80;69.40;;;;;;21089219;28;20239;-70
2022/05/25 00:20:22;;;;;;;4.63;1.60;;;16.70;69.80;;;;;;21114050;28;20241;-69
2022/05/25 00:30:25;;;;;;;5.20;1.40;;;16.70;70.30;;;;;;21098679;28;20237;-61
2022/05/25 00:40:49;;;;;;;4.47;1.63;;;16.80;70.90;;;;;;21087744;28;20721;-62
2022/05/25 01:01:12;;;;;;;1.57;1.13;;;16.80;71.60;;;;;;21085334;28;20204;-61
2022/05/25 01:11:43;;;;;;;2.37;1.20;;;16.70;71.60;;;;;;21084052;28;20235;-61
2022/05/25 01:21:52;;;;;;;3.03;1.70;;;16.70;71.60;;;;;;21083809;28;20232;-73
2022/05/25 01:32:00;;;;;;;3.53;1.33;;;16.50;72.00;;;;;;21082850;28;20241;-67
2022/05/25 01:42:25;;;;;;;5.97;2.07;;;16.40;73.10;;;;;;21082586;28;20204;-66
2022/05/25 01:52:32;;;;;;;5.00;1.60;;;16.20;74.70;;;;;;21081427;28;20698;-66
2022/05/25 02:13:23;;;;;;;1.83;1.50;;;15.80;77.30;;;;;;21079762;28;20287;-61
2022/05/25 02:23:41;;;;;;;3.60;1.73;;;15.80;78.00;;;;;;21078948;28;20319;-62
2022/05/25 02:33:52;;;;;;;2.13;1.60;;;15.80;78.00;;;;;;21078652;28;20237;-65
2022/05/25 02:43:55;;;;;;;3.17;1.80;;;15.60;78.40;;;;;;21078766;28;20214;-62
2022/05/25 02:53:57;;;;;;;3.90;1.67;;;15.40;79.00;;;;;;21078220;28;20268;-61
2022/05/25 03:03:59;;;;;;;5.10;1.73;;;15.30;79.60;;;;;;21077921;28;20214;-62
2022/05/25 03:14:01;;;;;;;2.47;1.50;;;15.40;79.50;;;;;;21079576;28;20684;-73
2022/05/25 03:24:03;;;;;;;3.17;1.60;;;15.30;79.70;;;;;;21092114;28;20238;-76
2022/05/25 03:34:05;;;;;;;3.30;1.87;;;15.20;80.00;;;;;;21074256;28;20280;-63
2022/05/25 03:44:07;;;;;;;7.73;5.80;;;15.20;80.50;;;;;;21091635;28;20216;-61
2022/05/25 03:54:09;;;;;;;2.67;2.00;;;15.20;80.90;;;;;;21090599;28;20230;-76
2022/05/25 04:04:11;;;;;;;2.53;1.63;;;15.40;80.90;;;;;;21089520;28;20251;-62
2022/05/25 04:14:15;;;;;;;2.77;1.70;;;15.50;81.40;;;;;;21089036;28;20737;-61
2022/05/25 04:24:17;;;;;;;2.03;1.63;;;15.60;80.90;;;;;;21087873;28;20240;-60
2022/05/25 04:34:18;;;;;;;2.97;1.57;;;15.60;80.90;;;;;;21087197;28;20319;-62
2022/05/25 04:44:20;;;;;;;1.93;1.60;;;15.70;80.80;;;;;;21087191;28;20213;-61
2022/05/25 04:54:22;;;;;;;6.30;2.13;;;15.80;80.90;;;;;;21085848;28;20296;-66
2022/05/25 05:04:26;;;;;;;8.17;3.00;;;15.80;80.90;;;;;;21085898;28;20208;-62
2022/05/25 05:14:28;;;;;;;5.27;1.90;;;15.80;81.90;;;;;;21108408;28;20312;-61
2022/05/25 05:24:32;;;;;;;3.47;2.03;;;15.90;81.60;;;;;;21100425;28;20231;-64
2022/05/25 05:34:33;;;;;;;7.80;2.70;;;16.10;81.50;;;;;;21098809;28;20241;-67
2022/05/25 05:44:56;;;;;;;19.03;3.00;;;16.20;81.10;;;;;;21094416;28;20287;-64
2022/05/25 05:54:58;;;;;;;14.03;3.30;;;16.30;80.90;;;;;;21081853;28;20234;-72
2022/05/25 06:05:00;;;;;;;7.60;2.60;;;16.40;80.30;;;;;;21081702;28;20214;-73
2022/05/25 06:19:25;;;;;;;11.07;2.23;;;16.50;79.90;;;;;;21080340;28;20234;-64
2022/05/25 06:25:25;;;;;;;4.47;2.70;;;16.70;79.30;;;;;;21080534;28;20241;-64
2022/05/25 06:35:27;;;;;;;10.23;2.10;;;16.90;77.70;;;;;;21078854;28;20244;-68
2022/05/25 06:45:29;;;;;;;5.40;1.87;;;17.20;76.20;;;;;;21078229;28;20279;-65
2022/05/25 06:55:30;;;;;;;4.73;1.40;;;17.40;74.80;;;;;;21089715;28;20232;-74
2022/05/25 07:05:33;;;;;;;2.57;1.87;;;17.60;73.50;;;;;;21094614;28;20214;-68
2022/05/25 07:15:35;;;;;;;1.90;1.40;;;17.80;72.50;;;;;;21094138;28;20236;-65
2022/05/25 07:25:37;;;;;;;8.77;1.43;;;18.00;71.10;;;;;;21075181;28;20234;-68
2022/05/25 07:35:39;;;;;;;2.93;1.37;;;18.20;70.00;;;;;;21074088;28;20720;-63
2022/05/25 07:45:44;;;;;;;4.80;1.30;;;18.50;68.60;;;;;;21091680;28;20212;-63
2022/05/25 07:55:45;;;;;;;5.70;1.23;;;18.60;66.20;;;;;;21091180;28;20241;-62
2022/05/25 08:05:48;;;;;;;2.53;1.13;;;18.90;64.70;;;;;;21088105;28;20204;-64
2022/05/25 08:15:49;;;;;;;8.67;5.13;;;19.00;63.20;;;;;;21087645;28;20230;-69
2022/05/25 08:25:51;;;;;;;5.33;2.57;;;19.00;61.30;;;;;;21090366;28;20644;-74
2022/05/25 08:35:53;;;;;;;17.47;8.70;;;19.00;59.80;;;;;;21088426;28;20281;-66
2022/05/25 08:46:00;;;;;;;5.00;1.63;;;19.40;59.90;;;;;;21087572;28;20205;-76
2022/05/25 08:56:23;;;;;;;5.03;1.90;;;19.50;58.90;;;;;;21086091;28;20250;-74
2022/05/25 09:06:41;;;;;;;4.13;1.20;;;19.50;57.50;;;;;;21085025;28;20553;-70
2022/05/25 09:16:48;;;;;;;2.93;1.23;;;19.70;56.80;;;;;;21083790;28;20262;-65
2022/05/25 09:26:51;;;;;;;2.20;1.30;;;20.00;56.70;;;;;;21084086;28;20223;-67
2022/05/25 09:37:05;;;;;;;1.97;1.20;;;19.70;56.80;;;;;;21082342;28;20595;-63
2022/05/25 09:47:16;;;;;;;1.20;0.80;;;19.90;56.00;;;;;;21081742;28;20292;-63
2022/05/25 09:57:26;;;;;;;1.93;1.20;;;20.30;54.70;;;;;;21063533;28;20239;-64
2022/05/25 10:08:02;;;;;;;4.43;1.30;;;20.50;53.10;;;;;;21079301;28;20263;-68
2022/05/25 10:18:05;;;;;;;1.23;1.00;;;20.50;52.40;;;;;;21075964;28;20320;-70
2022/05/25 10:28:28;;;;;;;4.93;1.60;;;20.30;52.50;;;;;;21079540;28;20221;-66
2022/05/25 10:38:31;;;;;;;3.67;1.30;;;20.10;53.90;;;;;;21078645;28;20292;-75
2022/05/25 10:48:54;;;;;;;2.77;1.20;;;20.20;53.40;;;;;;21106013;28;20225;-73
2022/05/25 10:59:40;;;;;;;1.90;0.90;;;20.30;52.10;;;;;;21094472;28;20307;-66
2022/05/25 11:10:14;;;;;;;2.93;0.90;;;20.40;52.40;;;;;;21078542;28;20319;-65
2022/05/25 11:20:44;;;;;;;2.57;1.10;;;20.70;52.20;;;;;;21077298;28;20728;-72
2022/05/25 11:31:01;;;;;;;1.67;1.17;;;20.70;51.50;;;;;;21076483;28;20240;-70
2022/05/25 11:41:21;;;;;;;1.93;0.90;;;20.60;51.60;;;;;;21084911;28;20205;-61
2022/05/25 11:51:24;;;;;;;1.80;0.97;;;21.00;50.60;;;;;;21090165;28;20248;-66
2022/05/25 12:01:47;;;;;;;3.67;1.50;;;20.90;49.40;;;;;;21072033;28;20207;-68
2022/05/25 12:12:20;;;;;;;1.87;0.90;;;20.80;50.70;;;;;;21089099;28;20239;-65
2022/05/25 12:22:31;;;;;;;2.97;1.30;;;21.30;50.80;;;;;;21089193;28;20231;-67
2022/05/25 12:32:35;;;;;;;2.50;1.00;;;21.60;50.50;;;;;;21086786;28;20238;-71
2022/05/25 12:42:39;;;;;;;3.63;1.20;;;21.80;49.70;;;;;;21087647;28;20578;-69
2022/05/25 12:52:43;;;;;;;4.23;0.90;;;21.90;49.40;;;;;;21084882;28;20755;-63
2022/05/25 13:02:45;;;;;;;1.37;1.10;;;21.70;48.80;;;;;;21084997;28;20663;-70
2022/05/25 13:12:51;;;;;;;1.47;1.00;;;21.80;49.10;;;;;;21085449;28;20281;-65
2022/05/25 13:22:55;;;;;;;7.53;1.77;;;21.80;49.00;;;;;;21083622;28;20245;-64
2022/05/25 13:33:04;;;;;;;2.73;1.03;;;21.70;48.80;;;;;;21083570;28;20246;-68
2022/05/25 13:43:15;;;;;;;5.30;1.10;;;21.60;48.90;;;;;;21083798;28;20673;-68
2022/05/25 13:53:37;;;;;;;3.50;1.17;;;21.60;49.30;;;;;;21081674;28;20731;-71
2022/05/25 14:03:45;;;;;;;1.63;1.07;;;21.60;49.20;;;;;;21079953;28;20222;-65
2022/05/25 14:13:47;;;;;;;2.93;1.70;;;21.70;49.10;;;;;;21080100;28;20238;-66
2022/05/25 14:23:49;;;;;;;3.93;0.90;;;22.00;48.50;;;;;;21079363;28;20325;-69
2022/05/25 14:34:08;;;;;;;1.77;0.90;;;22.00;48.00;;;;;;21078386;28;20225;-71
2022/05/25 14:44:28;;;;;;;1.47;1.20;;;22.20;47.40;;;;;;21061172;28;20206;-73
2022/05/25 14:54:30;;;;;;;2.90;0.97;;;22.40;47.20;;;;;;21077975;28;20252;-75
2022/05/25 15:04:36;;;;;;;1.70;0.93;;;22.30;47.30;;;;;;21077705;28;20681;-73
2022/05/25 15:25:05;;;;;;;1.17;0.90;;;22.60;46.60;;;;;;21093908;28;20256;-73
2022/05/25 15:35:09;;;;;;;3.67;1.57;;;22.70;45.80;;;;;;21092358;28;20244;-70
2022/05/25 15:45:11;;;;;;;7.30;1.60;;;22.40;45.20;;;;;;21073298;28;20252;-67
2022/05/25 15:55:15;;;;;;;2.93;1.67;;;22.30;44.80;;;;;;21091091;28;20751;-69
2022/05/25 16:05:23;;;;;;;1.37;0.80;;;22.60;44.30;;;;;;21121037;28;20211;-66
2022/05/25 16:15:26;;;;;;;2.97;0.90;;;23.30;43.20;;;;;;21124782;28;20231;-70
2022/05/25 16:25:28;;;;;;;3.60;0.90;;;23.00;43.30;;;;;;21090486;28;20270;-67
2022/05/25 16:35:30;;;;;;;1.07;0.80;;;22.80;43.70;;;;;;21088605;28;20230;-62
2022/05/25 16:45:32;;;;;;;1.23;0.73;;;22.50;43.80;;;;;;21087937;28;20214;-71
2022/05/25 16:55:35;;;;;;;1.77;1.07;;;22.50;44.10;;;;;;21069329;28;20277;-65
2022/05/25 17:05:37;;;;;;;3.77;0.97;;;22.50;44.40;;;;;;21085916;28;20308;-62
2022/05/25 17:15:39;;;;;;;2.13;1.00;;;22.30;44.40;;;;;;21085340;28;20234;-66
2022/05/25 17:25:43;;;;;;;1.47;0.90;;;22.20;44.60;;;;;;21084054;28;20276;-63
2022/05/25 17:46:05;;;;;;;3.97;2.37;;;22.10;45.20;;;;;;21082170;28;20213;-63
2022/05/25 17:56:08;;;;;;;7.00;4.20;;;22.10;45.40;;;;;;21064049;28;20378;-62
2022/05/25 18:06:11;;;;;;;1.30;0.80;;;21.80;45.80;;;;;;21084155;28;20249;-72
2022/05/25 18:16:13;;;;;;;5.80;0.77;;;21.70;46.20;;;;;;21096294;28;20326;-66
2022/05/25 18:26:15;;;;;;;1.63;0.90;;;21.60;46.40;;;;;;21080289;28;20652;-67
2022/05/25 18:36:20;;;;;;;4.00;1.20;;;21.50;46.70;;;;;;21079790;28;20238;-66
2022/05/25 18:46:23;;;;;;;1.87;0.90;;;21.20;47.00;;;;;;21082828;28;20327;-68
2022/05/25 18:56:25;;;;;;;1.23;0.93;;;21.10;47.50;;;;;;21109365;28;20568;-75
2022/05/25 19:06:27;;;;;;;1.30;1.00;;;20.90;47.40;;;;;;21106535;28;20204;-72
2022/05/25 19:16:29;;;;;;;2.53;0.93;;;20.70;47.20;;;;;;21105389;28;20241;-74
2022/05/25 19:26:32;;;;;;;4.30;1.10;;;20.50;47.20;;;;;;21105403;28;20215;-67
2022/05/25 19:36:38;;;;;;;4.30;1.17;;;20.30;47.00;;;;;;21104470;28;20587;-70
2022/05/25 19:46:40;;;;;;;4.80;1.13;;;20.20;47.30;;;;;;21103934;28;20205;-75
2022/05/25 19:56:42;;;;;;;2.27;1.17;;;20.10;47.40;;;;;;21103734;28;20264;-67
2022/05/25 20:06:44;;;;;;;2.40;1.40;;;19.90;47.60;;;;;;21090165;28;20210;-68
2022/05/25 20:16:45;;;;;;;4.97;1.30;;;19.80;48.30;;;;;;21088911;28;20239;-65
2022/05/25 20:26:47;;;;;;;3.53;1.30;;;19.60;50.00;;;;;;21088886;28;20204;-68
2022/05/25 20:36:52;;;;;;;1.17;0.80;;;19.40;50.10;;;;;;21069765;28;20717;-64
2022/05/25 20:46:54;;;;;;;1.80;1.07;;;19.40;49.90;;;;;;21087200;28;20549;-70
2022/05/25 20:56:56;;;;;;;2.13;1.07;;;19.40;49.70;;;;;;21086234;28;20322;-63
2022/05/25 21:06:58;;;;;;;4.47;1.10;;;19.30;49.60;;;;;;21085345;28;20209;-70
2022/05/25 21:17:00;;;;;;;1.67;0.90;;;19.30;50.00;;;;;;21083800;28;20772;-64
2022/05/25 21:27:02;;;;;;;3.60;0.90;;;19.20;50.10;;;;;;21133917;28;20200;-62
2022/05/25 21:37:05;;;;;;;3.87;1.10;;;19.20;50.30;;;;;;21088135;28;20236;-63
2022/05/25 21:57:29;;;;;;;2.60;1.20;;;19.10;50.70;;;;;;21081647;28;20239;-66
2022/05/25 22:07:31;;;;;;;1.80;1.00;;;19.10;51.10;;;;;;21080795;28;20242;-64
2022/05/25 22:17:33;;;;;;;1.77;0.90;;;19.10;51.10;;;;;;21079888;28;20641;-62
2022/05/25 22:27:35;;;;;;;2.97;1.00;;;19.10;51.10;;;;;;21078978;28;20209;-66
2022/05/25 22:37:37;;;;;;;4.93;1.07;;;19.10;51.40;;;;;;21078751;28;20238;-61
2022/05/25 22:47:39;;;;;;;4.20;0.90;;;19.00;51.60;;;;;;21078718;28;20204;-67
2022/05/25 22:57:41;;;;;;;1.07;0.93;;;19.00;51.70;;;;;;21078644;28;20235;-61
2022/05/25 23:07:42;;;;;;;2.33;1.20;;;19.00;51.80;;;;;;21078122;28;20208;-61
2022/05/25 23:17:44;;;;;;;1.10;1.00;;;19.00;51.90;;;;;;21077740;28;20335;-67
2022/05/25 23:27:47;;;;;;;1.10;0.90;;;19.00;52.20;;;;;;21078077;28;20209;-68
2022/05/25 23:37:48;;;;;;;1.50;0.90;;;18.90;52.90;;;;;;21104329;28;20238;-68
2022/05/25 23:47:50;;;;;;;3.63;1.13;;;18.90;52.60;;;;;;21092374;28;20208;-68
2022/05/25 23:57:52;;;;;;;1.83;0.90;;;18.90;52.90;;;;;;21091246;28;20234;-63
